sensor_id;sensor_type;location;lat;lon;timestamp;temperature;humidity
79571;DHT22;69034;49.444;7.758;2023-05-24T00:00:30;16.40;46.50
79571;DHT22;69034;49.444;7.758;2023-05-24T00:04:31;16.40;46.50
79571;DHT22;69034;49.444;7.758;2023-05-24T00:08:32;16.50;46.60
79571;DHT22;69034;49.444;7.758;2023-05-24T00:12:33;16.50;46.60
79571;DHT22;69034;49.444;7.758;2023-05-24T00:16:34;16.60;46.60
79571;DHT22;69034;49.444;7.758;2023-05-24T00:20:36;16.70;46.50
79571;DHT22;69034;49.444;7.758;2023-05-24T00:24:36;16.70;46.50
79571;DHT22;69034;49.444;7.758;2023-05-24T00:28:37;16.60;46.30
79571;DHT22;69034;49.444;7.758;2023-05-24T00:32:40;16.50;46.60
79571;DHT22;69034;49.444;7.758;2023-05-24T00:36:41;16.40;46.60
79571;DHT22;69034;49.444;7.758;2023-05-24T00:40:42;16.20;46.80
79571;DHT22;69034;49.444;7.758;2023-05-24T00:44:43;16.10;46.90
79571;DHT22;69034;49.444;7.758;2023-05-24T00:48:44;16.00;46.90
79571;DHT22;69034;49.444;7.758;2023-05-24T00:52:47;15.90;47.00
79571;DHT22;69034;49.444;7.758;2023-05-24T00:56:49;15.80;47.20
79571;DHT22;69034;49.444;7.758;2023-05-24T01:00:50;15.80;47.30
79571;DHT22;69034;49.444;7.758;2023-05-24T01:04:51;15.70;47.50
79571;DHT22;69034;49.444;7.758;2023-05-24T01:17:12;15.40;47.70
79571;DHT22;69034;49.444;7.758;2023-05-24T01:29:53;15.20;48.00
79571;DHT22;69034;49.444;7.758;2023-05-24T01:33:55;15.10;48.10
79571;DHT22;69034;49.444;7.758;2023-05-24T01:37:56;15.10;48.20
79571;DHT22;69034;49.444;7.758;2023-05-24T01:50:35;14.80;48.40
79571;DHT22;69034;49.444;7.758;2023-05-24T01:54:40;14.80;48.40
79571;DHT22;69034;49.444;7.758;2023-05-24T01:58:44;14.70;48.50
79571;DHT22;69034;49.444;7.758;2023-05-24T02:02:46;14.70;48.60
79571;DHT22;69034;49.444;7.758;2023-05-24T02:06:47;14.60;48.70
79571;DHT22;69034;49.444;7.758;2023-05-24T02:10:47;14.60;48.70
79571;DHT22;69034;49.444;7.758;2023-05-24T02:14:48;14.70;48.80
79571;DHT22;69034;49.444;7.758;2023-05-24T02:18:50;14.80;48.70
79571;DHT22;69034;49.444;7.758;2023-05-24T02:22:51;14.80;48.70
79571;DHT22;69034;49.444;7.758;2023-05-24T02:26:51;14.90;48.60
79571;DHT22;69034;49.444;7.758;2023-05-24T02:30:52;15.00;48.50
79571;DHT22;69034;49.444;7.758;2023-05-24T02:34:53;15.00;48.50
79571;DHT22;69034;49.444;7.758;2023-05-24T02:38:53;15.00;48.50
79571;DHT22;69034;49.444;7.758;2023-05-24T02:42:54;15.10;48.40
79571;DHT22;69034;49.444;7.758;2023-05-24T02:46:55;15.10;48.40
79571;DHT22;69034;49.444;7.758;2023-05-24T02:50:55;15.10;48.20
79571;DHT22;69034;49.444;7.758;2023-05-24T02:54:57;15.10;48.30
79571;DHT22;69034;49.444;7.758;2023-05-24T02:58:58;15.00;48.30
79571;DHT22;69034;49.444;7.758;2023-05-24T03:02:58;14.90;48.40
79571;DHT22;69034;49.444;7.758;2023-05-24T03:07:02;14.90;48.40
79571;DHT22;69034;49.444;7.758;2023-05-24T03:11:03;14.80;48.50
79571;DHT22;69034;49.444;7.758;2023-05-24T03:15:04;14.80;48.60
79571;DHT22;69034;49.444;7.758;2023-05-24T03:19:05;14.80;48.60
79571;DHT22;69034;49.444;7.758;2023-05-24T03:23:06;14.70;48.50
79571;DHT22;69034;49.444;7.758;2023-05-24T03:27:09;14.70;48.50
79571;DHT22;69034;49.444;7.758;2023-05-24T03:31:10;14.70;48.60
79571;DHT22;69034;49.444;7.758;2023-05-24T03:35:11;14.60;48.70
79571;DHT22;69034;49.444;7.758;2023-05-24T03:39:12;14.60;48.70
79571;DHT22;69034;49.444;7.758;2023-05-24T03:43:12;14.60;48.80
79571;DHT22;69034;49.444;7.758;2023-05-24T03:47:13;14.60;48.70
79571;DHT22;69034;49.444;7.758;2023-05-24T03:51:14;14.60;48.70
79571;DHT22;69034;49.444;7.758;2023-05-24T03:55:15;14.50;48.70
79571;DHT22;69034;49.444;7.758;2023-05-24T03:59:15;14.50;48.70
79571;DHT22;69034;49.444;7.758;2023-05-24T04:03:16;14.60;48.70
79571;DHT22;69034;49.444;7.758;2023-05-24T04:07:19;14.60;48.70
79571;DHT22;69034;49.444;7.758;2023-05-24T04:11:19;14.60;48.70
79571;DHT22;69034;49.444;7.758;2023-05-24T04:15:22;14.60;48.60
79571;DHT22;69034;49.444;7.758;2023-05-24T04:19:23;14.60;48.60
79571;DHT22;69034;49.444;7.758;2023-05-24T04:23:24;14.70;48.60
79571;DHT22;69034;49.444;7.758;2023-05-24T04:27:24;14.70;48.60
79571;DHT22;69034;49.444;7.758;2023-05-24T04:31:25;14.70;48.60
79571;DHT22;69034;49.444;7.758;2023-05-24T04:35:28;14.70;48.50
79571;DHT22;69034;49.444;7.758;2023-05-24T04:39:30;14.70;48.50
79571;DHT22;69034;49.444;7.758;2023-05-24T04:43:32;14.80;48.60
79571;DHT22;69034;49.444;7.758;2023-05-24T04:47:35;14.90;48.50
79571;DHT22;69034;49.444;7.758;2023-05-24T04:51:36;15.00;48.30
79571;DHT22;69034;49.444;7.758;2023-05-24T04:55:37;15.10;48.20
79571;DHT22;69034;49.444;7.758;2023-05-24T04:59:39;15.20;48.00
79571;DHT22;69034;49.444;7.758;2023-05-24T05:03:40;15.30;47.90
79571;DHT22;69034;49.444;7.758;2023-05-24T05:07:41;15.40;47.80
79571;DHT22;69034;49.444;7.758;2023-05-24T05:11:42;15.40;47.80
79571;DHT22;69034;49.444;7.758;2023-05-24T05:15:42;15.50;47.80
79571;DHT22;69034;49.444;7.758;2023-05-24T05:19:43;15.50;47.60
79571;DHT22;69034;49.444;7.758;2023-05-24T05:23:44;15.40;47.70
79571;DHT22;69034;49.444;7.758;2023-05-24T05:27:45;15.40;47.70
79571;DHT22;69034;49.444;7.758;2023-05-24T05:31:46;15.60;48.20
79571;DHT22;69034;49.444;7.758;2023-05-24T05:35:52;15.70;48.00
79571;DHT22;69034;49.444;7.758;2023-05-24T05:39:52;15.60;48.20
79571;DHT22;69034;49.444;7.758;2023-05-24T05:43:53;15.60;48.20
79571;DHT22;69034;49.444;7.758;2023-05-24T05:47:54;15.50;48.20
79571;DHT22;69034;49.444;7.758;2023-05-24T05:51:57;15.70;47.90
79571;DHT22;69034;49.444;7.758;2023-05-24T05:56:01;15.60;47.70
79571;DHT22;69034;49.444;7.758;2023-05-24T06:00:02;15.60;47.80
79571;DHT22;69034;49.444;7.758;2023-05-24T06:04:03;15.70;47.70
79571;DHT22;69034;49.444;7.758;2023-05-24T06:08:03;15.80;47.60
79571;DHT22;69034;49.444;7.758;2023-05-24T06:12:04;15.90;47.50
79571;DHT22;69034;49.444;7.758;2023-05-24T06:16:05;16.00;47.30
79571;DHT22;69034;49.444;7.758;2023-05-24T06:20:08;16.10;47.20
79571;DHT22;69034;49.444;7.758;2023-05-24T06:24:11;16.20;46.90
79571;DHT22;69034;49.444;7.758;2023-05-24T06:28:12;16.50;46.50
79571;DHT22;69034;49.444;7.758;2023-05-24T06:32:13;16.70;46.30
79571;DHT22;69034;49.444;7.758;2023-05-24T06:36:13;17.20;46.60
79571;DHT22;69034;49.444;7.758;2023-05-24T06:40:14;18.30;45.80
79571;DHT22;69034;49.444;7.758;2023-05-24T06:44:15;19.20;45.50
79571;DHT22;69034;49.444;7.758;2023-05-24T06:48:16;19.90;45.30
79571;DHT22;69034;49.444;7.758;2023-05-24T06:52:17;20.40;44.10
79571;DHT22;69034;49.444;7.758;2023-05-24T06:56:17;20.80;43.40
79571;DHT22;69034;49.444;7.758;2023-05-24T07:00:18;21.20;42.60
79571;DHT22;69034;49.444;7.758;2023-05-24T07:04:19;21.70;41.30
79571;DHT22;69034;49.444;7.758;2023-05-24T07:08:20;22.20;40.80
79571;DHT22;69034;49.444;7.758;2023-05-24T07:12:21;22.60;40.50
79571;DHT22;69034;49.444;7.758;2023-05-24T07:16:23;22.90;40.00
79571;DHT22;69034;49.444;7.758;2023-05-24T07:20:24;23.50;39.20
79571;DHT22;69034;49.444;7.758;2023-05-24T07:24:25;24.30;38.80
79571;DHT22;69034;49.444;7.758;2023-05-24T07:28:26;24.80;38.30
79571;DHT22;69034;49.444;7.758;2023-05-24T07:32:27;25.00;36.70
79571;DHT22;69034;49.444;7.758;2023-05-24T07:36:28;25.20;35.60
79571;DHT22;69034;49.444;7.758;2023-05-24T07:40:31;25.20;35.70
79571;DHT22;69034;49.444;7.758;2023-05-24T07:44:32;25.40;35.60
79571;DHT22;69034;49.444;7.758;2023-05-24T07:48:33;25.60;34.80
79571;DHT22;69034;49.444;7.758;2023-05-24T07:52:33;26.00;34.70
79571;DHT22;69034;49.444;7.758;2023-05-24T07:56:34;26.40;34.30
79571;DHT22;69034;49.444;7.758;2023-05-24T08:00:36;26.70;33.30
79571;DHT22;69034;49.444;7.758;2023-05-24T08:04:37;27.10;32.60
79571;DHT22;69034;49.444;7.758;2023-05-24T08:08:38;27.50;31.40
79571;DHT22;69034;49.444;7.758;2023-05-24T08:12:41;27.80;31.00
79571;DHT22;69034;49.444;7.758;2023-05-24T08:16:42;28.00;31.00
79571;DHT22;69034;49.444;7.758;2023-05-24T08:20:42;28.00;31.20
79571;DHT22;69034;49.444;7.758;2023-05-24T08:24:43;28.10;29.80
79571;DHT22;69034;49.444;7.758;2023-05-24T08:28:43;28.20;30.20
79571;DHT22;69034;49.444;7.758;2023-05-24T08:32:44;28.40;30.20
79571;DHT22;69034;49.444;7.758;2023-05-24T08:36:45;28.50;29.70
79571;DHT22;69034;49.444;7.758;2023-05-24T08:40:47;28.60;30.10
79571;DHT22;69034;49.444;7.758;2023-05-24T08:45:03;28.80;29.00
79571;DHT22;69034;49.444;7.758;2023-05-24T08:49:08;29.00;27.80
79571;DHT22;69034;49.444;7.758;2023-05-24T08:53:12;29.20;27.80
79571;DHT22;69034;49.444;7.758;2023-05-24T08:57:14;29.40;28.50
79571;DHT22;69034;49.444;7.758;2023-05-24T09:01:16;29.50;28.80
79571;DHT22;69034;49.444;7.758;2023-05-24T09:05:17;29.70;28.20
79571;DHT22;69034;49.444;7.758;2023-05-24T09:09:21;29.30;27.40
79571;DHT22;69034;49.444;7.758;2023-05-24T09:13:25;28.80;27.40
79571;DHT22;69034;49.444;7.758;2023-05-24T09:17:26;28.60;27.50
79571;DHT22;69034;49.444;7.758;2023-05-24T09:21:27;28.50;27.30
79571;DHT22;69034;49.444;7.758;2023-05-24T09:25:29;28.30;26.60
79571;DHT22;69034;49.444;7.758;2023-05-24T09:29:29;28.20;26.60
79571;DHT22;69034;49.444;7.758;2023-05-24T09:33:31;28.00;26.20
79571;DHT22;69034;49.444;7.758;2023-05-24T09:37:35;28.20;25.90
79571;DHT22;69034;49.444;7.758;2023-05-24T09:41:38;28.40;25.70
79571;DHT22;69034;49.444;7.758;2023-05-24T09:45:45;28.70;25.30
79571;DHT22;69034;49.444;7.758;2023-05-24T09:49:46;29.20;25.30
79571;DHT22;69034;49.444;7.758;2023-05-24T09:53:56;29.60;24.80
79571;DHT22;69034;49.444;7.758;2023-05-24T09:58:07;30.20;24.20
79571;DHT22;69034;49.444;7.758;2023-05-24T10:02:09;30.60;19.50
79571;DHT22;69034;49.444;7.758;2023-05-24T10:06:11;31.10;19.10
79571;DHT22;69034;49.444;7.758;2023-05-24T10:10:13;31.50;17.80
79571;DHT22;69034;49.444;7.758;2023-05-24T10:14:14;32.20;17.90
79571;DHT22;69034;49.444;7.758;2023-05-24T10:18:16;32.90;17.60
79571;DHT22;69034;49.444;7.758;2023-05-24T10:22:20;34.00;16.70
79571;DHT22;69034;49.444;7.758;2023-05-24T10:26:23;34.70;16.00
79571;DHT22;69034;49.444;7.758;2023-05-24T10:30:44;34.50;16.50
79571;DHT22;69034;49.444;7.758;2023-05-24T10:34:48;34.40;16.50
79571;DHT22;69034;49.444;7.758;2023-05-24T10:38:50;35.10;15.50
79571;DHT22;69034;49.444;7.758;2023-05-24T10:42:52;35.50;14.40
79571;DHT22;69034;49.444;7.758;2023-05-24T10:47:21;36.00;14.20
79571;DHT22;69034;49.444;7.758;2023-05-24T10:51:37;35.60;12.80
79571;DHT22;69034;49.444;7.758;2023-05-24T10:55:58;36.00;12.60
79571;DHT22;69034;49.444;7.758;2023-05-24T11:04:24;36.80;12.90
79571;DHT22;69034;49.444;7.758;2023-05-24T11:12:33;36.50;13.70
79571;DHT22;69034;49.444;7.758;2023-05-24T11:16:38;37.70;13.00
79571;DHT22;69034;49.444;7.758;2023-05-24T11:20:43;38.20;12.60
79571;DHT22;69034;49.444;7.758;2023-05-24T11:24:47;38.90;11.60
79571;DHT22;69034;49.444;7.758;2023-05-24T11:28:49;36.70;13.30
79571;DHT22;69034;49.444;7.758;2023-05-24T11:32:49;36.90;12.30
79571;DHT22;69034;49.444;7.758;2023-05-24T11:36:50;37.90;11.20
79571;DHT22;69034;49.444;7.758;2023-05-24T11:40:57;38.60;10.70
79571;DHT22;69034;49.444;7.758;2023-05-24T11:44:58;39.50;11.30
79571;DHT22;69034;49.444;7.758;2023-05-24T11:48:59;39.10;11.30
79571;DHT22;69034;49.444;7.758;2023-05-24T11:53:03;38.20;11.20
79571;DHT22;69034;49.444;7.758;2023-05-24T11:57:04;37.00;11.70
79571;DHT22;69034;49.444;7.758;2023-05-24T12:01:05;38.20;11.00
79571;DHT22;69034;49.444;7.758;2023-05-24T12:05:06;40.00;9.90
79571;DHT22;69034;49.444;7.758;2023-05-24T12:09:10;40.70;9.20
79571;DHT22;69034;49.444;7.758;2023-05-24T12:13:21;41.30;9.10
79571;DHT22;69034;49.444;7.758;2023-05-24T12:17:23;41.60;8.90
79571;DHT22;69034;49.444;7.758;2023-05-24T12:21:24;41.70;9.40
79571;DHT22;69034;49.444;7.758;2023-05-24T12:25:24;41.90;9.90
79571;DHT22;69034;49.444;7.758;2023-05-24T12:29:34;42.00;9.60
79571;DHT22;69034;49.444;7.758;2023-05-24T12:33:36;42.20;9.00
79571;DHT22;69034;49.444;7.758;2023-05-24T12:37:36;42.20;8.80
79571;DHT22;69034;49.444;7.758;2023-05-24T12:41:40;42.60;8.90
79571;DHT22;69034;49.444;7.758;2023-05-24T12:45:40;43.10;8.60
79571;DHT22;69034;49.444;7.758;2023-05-24T12:49:41;43.40;8.40
79571;DHT22;69034;49.444;7.758;2023-05-24T12:53:42;43.50;8.40
79571;DHT22;69034;49.444;7.758;2023-05-24T12:57:44;43.80;8.70
79571;DHT22;69034;49.444;7.758;2023-05-24T13:01:52;44.10;8.60
79571;DHT22;69034;49.444;7.758;2023-05-24T13:05:53;44.40;8.70
79571;DHT22;69034;49.444;7.758;2023-05-24T13:09:53;43.40;9.00
79571;DHT22;69034;49.444;7.758;2023-05-24T13:13:54;43.30;8.90
79571;DHT22;69034;49.444;7.758;2023-05-24T13:17:55;44.30;8.70
79571;DHT22;69034;49.444;7.758;2023-05-24T13:21:56;41.40;8.00
79571;DHT22;69034;49.444;7.758;2023-05-24T13:25:56;38.70;9.60
79571;DHT22;69034;49.444;7.758;2023-05-24T13:29:57;41.80;9.40
79571;DHT22;69034;49.444;7.758;2023-05-24T13:33:58;44.60;8.80
79571;DHT22;69034;49.444;7.758;2023-05-24T13:37:59;45.90;7.80
79571;DHT22;69034;49.444;7.758;2023-05-24T13:42:01;46.60;8.10
79571;DHT22;69034;49.444;7.758;2023-05-24T13:46:02;46.90;7.90
79571;DHT22;69034;49.444;7.758;2023-05-24T13:50:03;46.80;7.60
79571;DHT22;69034;49.444;7.758;2023-05-24T13:54:04;47.70;6.90
79571;DHT22;69034;49.444;7.758;2023-05-24T13:58:06;44.60;7.70
79571;DHT22;69034;49.444;7.758;2023-05-24T14:02:07;42.00;8.50
79571;DHT22;69034;49.444;7.758;2023-05-24T14:06:08;40.50;8.70
79571;DHT22;69034;49.444;7.758;2023-05-24T14:10:09;39.10;9.00
79571;DHT22;69034;49.444;7.758;2023-05-24T14:14:12;38.80;9.30
79571;DHT22;69034;49.444;7.758;2023-05-24T14:18:13;39.30;9.50
79571;DHT22;69034;49.444;7.758;2023-05-24T14:22:13;42.00;8.50
79571;DHT22;69034;49.444;7.758;2023-05-24T14:26:15;44.80;8.50
79571;DHT22;69034;49.444;7.758;2023-05-24T14:30:16;45.50;8.60
79571;DHT22;69034;49.444;7.758;2023-05-24T14:34:23;47.80;8.10
79571;DHT22;69034;49.444;7.758;2023-05-24T14:38:23;46.00;7.60
79571;DHT22;69034;49.444;7.758;2023-05-24T14:42:24;45.60;7.70
79571;DHT22;69034;49.444;7.758;2023-05-24T14:46:25;41.60;8.70
79571;DHT22;69034;49.444;7.758;2023-05-24T14:50:26;38.80;9.70
79571;DHT22;69034;49.444;7.758;2023-05-24T14:54:26;36.80;10.50
79571;DHT22;69034;49.444;7.758;2023-05-24T14:58:27;35.60;11.20
79571;DHT22;69034;49.444;7.758;2023-05-24T15:02:28;34.80;11.80
79571;DHT22;69034;49.444;7.758;2023-05-24T15:06:28;33.70;12.60
79571;DHT22;69034;49.444;7.758;2023-05-24T15:10:33;33.20;13.30
79571;DHT22;69034;49.444;7.758;2023-05-24T15:14:34;33.10;13.40
79571;DHT22;69034;49.444;7.758;2023-05-24T15:18:36;32.70;13.50
79571;DHT22;69034;49.444;7.758;2023-05-24T15:22:37;31.90;14.20
79571;DHT22;69034;49.444;7.758;2023-05-24T15:26:37;31.10;15.30
79571;DHT22;69034;49.444;7.758;2023-05-24T15:30:38;30.40;16.00
79571;DHT22;69034;49.444;7.758;2023-05-24T15:34:39;29.80;16.50
79571;DHT22;69034;49.444;7.758;2023-05-24T15:38:40;29.20;17.20
79571;DHT22;69034;49.444;7.758;2023-05-24T15:42:42;29.00;17.50
79571;DHT22;69034;49.444;7.758;2023-05-24T15:46:43;28.70;17.50
79571;DHT22;69034;49.444;7.758;2023-05-24T15:50:43;28.50;17.70
79571;DHT22;69034;49.444;7.758;2023-05-24T15:54:44;28.20;18.40
79571;DHT22;69034;49.444;7.758;2023-05-24T15:58:45;28.30;18.70
79571;DHT22;69034;49.444;7.758;2023-05-24T16:02:46;28.40;18.80
79571;DHT22;69034;49.444;7.758;2023-05-24T16:06:46;28.30;18.70
79571;DHT22;69034;49.444;7.758;2023-05-24T16:10:47;28.10;18.90
79571;DHT22;69034;49.444;7.758;2023-05-24T16:14:48;28.00;19.00
79571;DHT22;69034;49.444;7.758;2023-05-24T16:18:49;27.80;19.10
79571;DHT22;69034;49.444;7.758;2023-05-24T16:22:49;27.80;18.90
79571;DHT22;69034;49.444;7.758;2023-05-24T16:26:50;27.90;18.80
79571;DHT22;69034;49.444;7.758;2023-05-24T16:30:51;29.30;18.20
79571;DHT22;69034;49.444;7.758;2023-05-24T16:34:55;29.90;18.30
79571;DHT22;69034;49.444;7.758;2023-05-24T16:38:55;29.80;18.50
79571;DHT22;69034;49.444;7.758;2023-05-24T16:42:56;29.50;18.30
79571;DHT22;69034;49.444;7.758;2023-05-24T16:46:57;29.10;18.20
79571;DHT22;69034;49.444;7.758;2023-05-24T16:50:58;28.70;18.40
79571;DHT22;69034;49.444;7.758;2023-05-24T16:54:59;30.00;17.50
79571;DHT22;69034;49.444;7.758;2023-05-24T16:58:59;30.60;17.20
79571;DHT22;69034;49.444;7.758;2023-05-24T17:03:00;30.30;17.50
79571;DHT22;69034;49.444;7.758;2023-05-24T17:07:01;29.70;17.60
79571;DHT22;69034;49.444;7.758;2023-05-24T17:11:02;29.50;17.80
79571;DHT22;69034;49.444;7.758;2023-05-24T17:15:03;29.00;18.20
79571;DHT22;69034;49.444;7.758;2023-05-24T17:19:04;29.30;18.10
79571;DHT22;69034;49.444;7.758;2023-05-24T17:23:05;29.20;18.20
79571;DHT22;69034;49.444;7.758;2023-05-24T17:27:06;28.90;18.50
79571;DHT22;69034;49.444;7.758;2023-05-24T17:31:07;28.70;18.50
79571;DHT22;69034;49.444;7.758;2023-05-24T17:35:10;28.10;19.40
79571;DHT22;69034;49.444;7.758;2023-05-24T17:39:11;27.30;24.10
79571;DHT22;69034;49.444;7.758;2023-05-24T17:43:12;26.40;25.00
79571;DHT22;69034;49.444;7.758;2023-05-24T17:47:12;25.80;25.90
79571;DHT22;69034;49.444;7.758;2023-05-24T17:51:13;25.30;26.30
79571;DHT22;69034;49.444;7.758;2023-05-24T17:55:14;24.80;26.40
79571;DHT22;69034;49.444;7.758;2023-05-24T17:59:15;24.50;26.80
79571;DHT22;69034;49.444;7.758;2023-05-24T18:03:15;24.30;27.00
79571;DHT22;69034;49.444;7.758;2023-05-24T18:07:16;24.10;27.20
79571;DHT22;69034;49.444;7.758;2023-05-24T18:11:17;23.90;27.50
79571;DHT22;69034;49.444;7.758;2023-05-24T18:15:18;23.70;27.70
79571;DHT22;69034;49.444;7.758;2023-05-24T18:19:20;23.60;27.80
79571;DHT22;69034;49.444;7.758;2023-05-24T18:23:21;23.30;27.80
79571;DHT22;69034;49.444;7.758;2023-05-24T18:27:21;23.00;27.70
79571;DHT22;69034;49.444;7.758;2023-05-24T18:31:22;22.90;27.80
79571;DHT22;69034;49.444;7.758;2023-05-24T18:35:23;22.60;27.90
79571;DHT22;69034;49.444;7.758;2023-05-24T18:39:24;22.40;28.00
79571;DHT22;69034;49.444;7.758;2023-05-24T18:43:24;22.30;28.30
79571;DHT22;69034;49.444;7.758;2023-05-24T18:47:25;22.10;28.40
79571;DHT22;69034;49.444;7.758;2023-05-24T18:51:26;21.90;28.60
79571;DHT22;69034;49.444;7.758;2023-05-24T18:55:27;21.70;28.70
79571;DHT22;69034;49.444;7.758;2023-05-24T18:59:28;21.50;28.90
79571;DHT22;69034;49.444;7.758;2023-05-24T19:03:30;21.30;29.10
79571;DHT22;69034;49.444;7.758;2023-05-24T19:07:32;21.20;29.30
79571;DHT22;69034;49.444;7.758;2023-05-24T19:11:33;21.00;29.50
79571;DHT22;69034;49.444;7.758;2023-05-24T19:15:35;20.80;29.60
79571;DHT22;69034;49.444;7.758;2023-05-24T19:19:36;20.60;30.00
79571;DHT22;69034;49.444;7.758;2023-05-24T19:23:37;20.40;30.40
79571;DHT22;69034;49.444;7.758;2023-05-24T19:27:39;20.10;30.70
79571;DHT22;69034;49.444;7.758;2023-05-24T19:31:40;20.00;30.90
79571;DHT22;69034;49.444;7.758;2023-05-24T19:35:40;19.80;31.20
79571;DHT22;69034;49.444;7.758;2023-05-24T19:39:41;19.70;32.00
79571;DHT22;69034;49.444;7.758;2023-05-24T19:43:41;19.70;32.40
79571;DHT22;69034;49.444;7.758;2023-05-24T19:47:43;19.60;32.60
79571;DHT22;69034;49.444;7.758;2023-05-24T19:51:44;19.50;32.80
79571;DHT22;69034;49.444;7.758;2023-05-24T19:55:47;19.50;33.00
79571;DHT22;69034;49.444;7.758;2023-05-24T19:59:48;19.40;33.30
79571;DHT22;69034;49.444;7.758;2023-05-24T20:03:48;19.20;33.40
79571;DHT22;69034;49.444;7.758;2023-05-24T20:07:49;19.20;33.70
79571;DHT22;69034;49.444;7.758;2023-05-24T20:11:50;19.10;33.80
79571;DHT22;69034;49.444;7.758;2023-05-24T20:15:51;19.00;33.90
79571;DHT22;69034;49.444;7.758;2023-05-24T20:19:51;18.90;34.00
79571;DHT22;69034;49.444;7.758;2023-05-24T20:23:52;18.80;34.10
79571;DHT22;69034;49.444;7.758;2023-05-24T20:27:55;18.60;34.00
79571;DHT22;69034;49.444;7.758;2023-05-24T20:31:56;18.50;34.40
79571;DHT22;69034;49.444;7.758;2023-05-24T20:35:57;18.40;34.30
79571;DHT22;69034;49.444;7.758;2023-05-24T20:39:59;18.30;34.30
79571;DHT22;69034;49.444;7.758;2023-05-24T20:44:00;18.20;34.30
79571;DHT22;69034;49.444;7.758;2023-05-24T20:48:00;18.20;34.40
79571;DHT22;69034;49.444;7.758;2023-05-24T20:52:01;18.10;34.30
79571;DHT22;69034;49.444;7.758;2023-05-24T20:56:02;18.10;34.30
79571;DHT22;69034;49.444;7.758;2023-05-24T21:00:04;18.00;34.40
79571;DHT22;69034;49.444;7.758;2023-05-24T21:04:05;18.00;34.60
79571;DHT22;69034;49.444;7.758;2023-05-24T21:08:05;18.00;34.70
79571;DHT22;69034;49.444;7.758;2023-05-24T21:12:06;17.90;34.80
79571;DHT22;69034;49.444;7.758;2023-05-24T21:16:07;17.80;35.00
79571;DHT22;69034;49.444;7.758;2023-05-24T21:20:08;17.70;35.20
79571;DHT22;69034;49.444;7.758;2023-05-24T21:24:09;17.60;35.30
79571;DHT22;69034;49.444;7.758;2023-05-24T21:28:09;17.50;35.50
79571;DHT22;69034;49.444;7.758;2023-05-24T21:32:10;17.50;35.70
79571;DHT22;69034;49.444;7.758;2023-05-24T21:36:11;17.40;36.00
79571;DHT22;69034;49.444;7.758;2023-05-24T21:40:12;17.30;36.10
79571;DHT22;69034;49.444;7.758;2023-05-24T21:44:13;17.20;36.30
79571;DHT22;69034;49.444;7.758;2023-05-24T21:48:13;17.20;36.50
79571;DHT22;69034;49.444;7.758;2023-05-24T21:52:14;17.20;36.90
79571;DHT22;69034;49.444;7.758;2023-05-24T21:56:15;17.20;37.10
79571;DHT22;69034;49.444;7.758;2023-05-24T22:00:16;17.30;37.20
79571;DHT22;69034;49.444;7.758;2023-05-24T22:04:17;17.30;37.30
79571;DHT22;69034;49.444;7.758;2023-05-24T22:08:18;17.20;37.50
79571;DHT22;69034;49.444;7.758;2023-05-24T22:12:18;17.20;37.60
79571;DHT22;69034;49.444;7.758;2023-05-24T22:16:22;17.10;37.60
79571;DHT22;69034;49.444;7.758;2023-05-24T22:20:23;17.00;37.70
79571;DHT22;69034;49.444;7.758;2023-05-24T22:24:25;17.00;37.70
79571;DHT22;69034;49.444;7.758;2023-05-24T22:28:26;16.90;37.70
79571;DHT22;69034;49.444;7.758;2023-05-24T22:32:28;16.70;37.70
79571;DHT22;69034;49.444;7.758;2023-05-24T22:36:29;16.50;38.10
79571;DHT22;69034;49.444;7.758;2023-05-24T22:40:33;16.40;38.10
79571;DHT22;69034;49.444;7.758;2023-05-24T22:44:36;16.20;38.30
79571;DHT22;69034;49.444;7.758;2023-05-24T22:48:36;16.10;38.30
79571;DHT22;69034;49.444;7.758;2023-05-24T22:52:39;16.00;38.40
79571;DHT22;69034;49.444;7.758;2023-05-24T22:56:42;15.90;38.40
79571;DHT22;69034;49.444;7.758;2023-05-24T23:00:43;15.80;38.50
79571;DHT22;69034;49.444;7.758;2023-05-24T23:04:44;15.60;38.50
79571;DHT22;69034;49.444;7.758;2023-05-24T23:08:47;15.50;38.50
79571;DHT22;69034;49.444;7.758;2023-05-24T23:12:48;15.50;38.60
79571;DHT22;69034;49.444;7.758;2023-05-24T23:16:49;15.40;38.60
79571;DHT22;69034;49.444;7.758;2023-05-24T23:20:50;15.30;38.70
79571;DHT22;69034;49.444;7.758;2023-05-24T23:24:55;15.20;38.80
79571;DHT22;69034;49.444;7.758;2023-05-24T23:28:56;15.10;38.90
79571;DHT22;69034;49.444;7.758;2023-05-24T23:32:59;15.00;38.90
79571;DHT22;69034;49.444;7.758;2023-05-24T23:37:03;15.00;39.10
79571;DHT22;69034;49.444;7.758;2023-05-24T23:41:04;14.90;39.20
79571;DHT22;69034;49.444;7.758;2023-05-24T23:45:06;14.80;39.40
79571;DHT22;69034;49.444;7.758;2023-05-24T23:49:07;14.70;39.50
79571;DHT22;69034;49.444;7.758;2023-05-24T23:53:07;14.60;39.50
79571;DHT22;69034;49.444;7.758;2023-05-24T23:57:08;14.60;39.70
